sensor_id;sensor_type;location;lat;lon;timestamp;P1;durP1;ratioP1;P2;durP2;ratioP2
71046;SDS011;58703;48.978;8.982;2023-08-24T00:00:48;8.02;;;5.97;;
71046;SDS011;58703;48.978;8.982;2023-08-24T00:03:13;7.78;;;5.35;;
71046;SDS011;58703;48.978;8.982;2023-08-24T00:05:40;9.17;;;5.17;;
71046;SDS011;58703;48.978;8.982;2023-08-24T00:08:07;7.32;;;6.00;;
71046;SDS011;58703;48.978;8.982;2023-08-24T00:10:36;9.40;;;6.65;;
71046;SDS011;58703;48.978;8.982;2023-08-24T00:13:02;10.53;;;6.80;;
71046;SDS011;58703;48.978;8.982;2023-08-24T00:15:27;9.85;;;6.07;;
71046;SDS011;58703;48.978;8.982;2023-08-24T00:17:53;7.00;;;5.68;;
71046;SDS011;58703;48.978;8.982;2023-08-24T00:20:19;7.40;;;5.53;;
71046;SDS011;58703;48.978;8.982;2023-08-24T00:22:45;6.93;;;5.80;;
71046;SDS011;58703;48.978;8.982;2023-08-24T00:25:11;6.22;;;5.57;;
71046;SDS011;58703;48.978;8.982;2023-08-24T00:27:37;12.73;;;6.17;;
71046;SDS011;58703;48.978;8.982;2023-08-24T00:30:04;8.23;;;5.57;;
71046;SDS011;58703;48.978;8.982;2023-08-24T00:32:32;9.02;;;6.40;;
71046;SDS011;58703;48.978;8.982;2023-08-24T00:34:59;6.22;;;5.60;;
71046;SDS011;58703;48.978;8.982;2023-08-24T00:37:26;7.93;;;6.35;;
71046;SDS011;58703;48.978;8.982;2023-08-24T00:39:51;7.87;;;7.00;;
71046;SDS011;58703;48.978;8.982;2023-08-24T00:42:17;9.50;;;7.10;;
71046;SDS011;58703;48.978;8.982;2023-08-24T00:44:43;9.93;;;7.40;;
71046;SDS011;58703;48.978;8.982;2023-08-24T00:47:08;9.50;;;6.87;;
71046;SDS011;58703;48.978;8.982;2023-08-24T00:49:34;8.18;;;5.95;;
71046;SDS011;58703;48.978;8.982;2023-08-24T00:52:00;9.20;;;6.00;;
71046;SDS011;58703;48.978;8.982;2023-08-24T00:54:25;6.77;;;5.73;;
71046;SDS011;58703;48.978;8.982;2023-08-24T00:56:51;9.88;;;6.47;;
71046;SDS011;58703;48.978;8.982;2023-08-24T00:59:18;8.05;;;5.68;;
71046;SDS011;58703;48.978;8.982;2023-08-24T01:01:44;7.15;;;6.20;;
71046;SDS011;58703;48.978;8.982;2023-08-24T01:04:13;6.83;;;5.83;;
71046;SDS011;58703;48.978;8.982;2023-08-24T01:06:39;7.20;;;5.60;;
71046;SDS011;58703;48.978;8.982;2023-08-24T01:09:04;7.00;;;6.18;;
71046;SDS011;58703;48.978;8.982;2023-08-24T01:14:09;7.35;;;6.65;;
71046;SDS011;58703;48.978;8.982;2023-08-24T01:16:45;13.50;;;7.35;;
71046;SDS011;58703;48.978;8.982;2023-08-24T01:19:20;8.10;;;6.75;;
71046;SDS011;58703;48.978;8.982;2023-08-24T01:22:02;8.70;;;7.35;;
71046;SDS011;58703;48.978;8.982;2023-08-24T01:24:40;8.73;;;7.83;;
71046;SDS011;58703;48.978;8.982;2023-08-24T01:27:10;9.27;;;7.72;;
71046;SDS011;58703;48.978;8.982;2023-08-24T01:29:36;7.53;;;6.32;;
71046;SDS011;58703;48.978;8.982;2023-08-24T01:32:08;8.73;;;6.13;;
71046;SDS011;58703;48.978;8.982;2023-08-24T01:34:39;7.38;;;5.78;;
71046;SDS011;58703;48.978;8.982;2023-08-24T01:37:07;5.80;;;5.10;;
71046;SDS011;58703;48.978;8.982;2023-08-24T01:39:35;7.53;;;5.75;;
71046;SDS011;58703;48.978;8.982;2023-08-24T01:42:08;6.93;;;6.25;;
71046;SDS011;58703;48.978;8.982;2023-08-24T01:44:39;11.00;;;5.82;;
71046;SDS011;58703;48.978;8.982;2023-08-24T01:47:07;8.45;;;6.50;;
71046;SDS011;58703;48.978;8.982;2023-08-24T01:49:36;7.67;;;6.97;;
71046;SDS011;58703;48.978;8.982;2023-08-24T01:52:04;9.35;;;7.43;;
71046;SDS011;58703;48.978;8.982;2023-08-24T01:54:30;8.10;;;7.20;;
71046;SDS011;58703;48.978;8.982;2023-08-24T01:56:56;12.15;;;7.63;;
71046;SDS011;58703;48.978;8.982;2023-08-24T01:59:22;9.50;;;7.70;;
71046;SDS011;58703;48.978;8.982;2023-08-24T02:01:47;10.87;;;7.73;;
71046;SDS011;58703;48.978;8.982;2023-08-24T02:04:13;8.00;;;7.00;;
71046;SDS011;58703;48.978;8.982;2023-08-24T02:06:39;9.97;;;6.97;;
71046;SDS011;58703;48.978;8.982;2023-08-24T02:09:04;10.02;;;7.88;;
71046;SDS011;58703;48.978;8.982;2023-08-24T02:11:30;8.93;;;8.03;;
71046;SDS011;58703;48.978;8.982;2023-08-24T02:13:55;11.77;;;8.27;;
71046;SDS011;58703;48.978;8.982;2023-08-24T02:16:21;8.77;;;6.97;;
71046;SDS011;58703;48.978;8.982;2023-08-24T02:18:47;8.57;;;6.80;;
71046;SDS011;58703;48.978;8.982;2023-08-24T02:21:12;9.27;;;6.57;;
71046;SDS011;58703;48.978;8.982;2023-08-24T02:23:39;8.65;;;6.90;;
71046;SDS011;58703;48.978;8.982;2023-08-24T02:26:05;7.57;;;6.53;;
71046;SDS011;58703;48.978;8.982;2023-08-24T02:28:32;8.07;;;7.23;;
71046;SDS011;58703;48.978;8.982;2023-08-24T02:31:02;11.43;;;7.65;;
71046;SDS011;58703;48.978;8.982;2023-08-24T02:33:28;9.60;;;8.18;;
71046;SDS011;58703;48.978;8.982;2023-08-24T02:35:54;8.75;;;7.85;;
71046;SDS011;58703;48.978;8.982;2023-08-24T02:38:21;10.00;;;7.73;;
71046;SDS011;58703;48.978;8.982;2023-08-24T02:40:48;9.18;;;6.88;;
71046;SDS011;58703;48.978;8.982;2023-08-24T02:43:14;8.18;;;6.95;;
71046;SDS011;58703;48.978;8.982;2023-08-24T02:45:40;9.20;;;6.75;;
71046;SDS011;58703;48.978;8.982;2023-08-24T02:48:06;8.63;;;6.87;;
71046;SDS011;58703;48.978;8.982;2023-08-24T02:50:31;8.90;;;7.00;;
71046;SDS011;58703;48.978;8.982;2023-08-24T02:52:57;8.93;;;7.93;;
71046;SDS011;58703;48.978;8.982;2023-08-24T02:55:24;10.70;;;9.60;;
71046;SDS011;58703;48.978;8.982;2023-08-24T02:57:49;10.20;;;9.20;;
71046;SDS011;58703;48.978;8.982;2023-08-24T03:00:16;10.57;;;8.65;;
71046;SDS011;58703;48.978;8.982;2023-08-24T03:02:42;11.35;;;9.43;;
71046;SDS011;58703;48.978;8.982;2023-08-24T03:05:07;10.67;;;9.57;;
71046;SDS011;58703;48.978;8.982;2023-08-24T03:07:33;10.93;;;9.80;;
71046;SDS011;58703;48.978;8.982;2023-08-24T03:09:59;13.03;;;9.60;;
71046;SDS011;58703;48.978;8.982;2023-08-24T03:12:24;9.45;;;7.93;;
71046;SDS011;58703;48.978;8.982;2023-08-24T03:14:53;9.00;;;7.80;;
71046;SDS011;58703;48.978;8.982;2023-08-24T03:17:20;10.63;;;7.63;;
71046;SDS011;58703;48.978;8.982;2023-08-24T03:19:46;8.18;;;7.15;;
71046;SDS011;58703;48.978;8.982;2023-08-24T03:22:11;9.30;;;6.87;;
71046;SDS011;58703;48.978;8.982;2023-08-24T03:24:37;7.23;;;6.53;;
71046;SDS011;58703;48.978;8.982;2023-08-24T03:27:03;6.63;;;6.03;;
71046;SDS011;58703;48.978;8.982;2023-08-24T03:29:28;7.27;;;6.53;;
71046;SDS011;58703;48.978;8.982;2023-08-24T03:31:54;11.03;;;7.17;;
71046;SDS011;58703;48.978;8.982;2023-08-24T03:34:19;9.88;;;6.63;;
71046;SDS011;58703;48.978;8.982;2023-08-24T03:36:46;9.40;;;7.10;;
71046;SDS011;58703;48.978;8.982;2023-08-24T03:39:13;8.80;;;7.90;;
71046;SDS011;58703;48.978;8.982;2023-08-24T03:41:40;9.32;;;8.43;;
71046;SDS011;58703;48.978;8.982;2023-08-24T03:44:06;9.32;;;8.32;;
71046;SDS011;58703;48.978;8.982;2023-08-24T03:46:32;10.90;;;8.23;;
71046;SDS011;58703;48.978;8.982;2023-08-24T03:48:57;7.88;;;7.07;;
71046;SDS011;58703;48.978;8.982;2023-08-24T03:51:24;6.63;;;6.03;;
71046;SDS011;58703;48.978;8.982;2023-08-24T03:53:50;7.75;;;6.55;;
71046;SDS011;58703;48.978;8.982;2023-08-24T03:56:15;8.00;;;7.07;;
71046;SDS011;58703;48.978;8.982;2023-08-24T03:58:41;7.72;;;6.20;;
71046;SDS011;58703;48.978;8.982;2023-08-24T04:01:09;6.53;;;5.93;;
71046;SDS011;58703;48.978;8.982;2023-08-24T04:03:36;6.40;;;5.80;;
71046;SDS011;58703;48.978;8.982;2023-08-24T04:06:01;6.25;;;5.65;;
71046;SDS011;58703;48.978;8.982;2023-08-24T04:08:27;6.77;;;5.90;;
71046;SDS011;58703;48.978;8.982;2023-08-24T04:10:52;8.83;;;6.00;;
71046;SDS011;58703;48.978;8.982;2023-08-24T04:13:18;8.23;;;6.03;;
71046;SDS011;58703;48.978;8.982;2023-08-24T04:15:43;6.87;;;6.27;;
71046;SDS011;58703;48.978;8.982;2023-08-24T04:18:09;9.23;;;6.23;;
71046;SDS011;58703;48.978;8.982;2023-08-24T04:20:34;7.93;;;7.13;;
71046;SDS011;58703;48.978;8.982;2023-08-24T04:23:01;9.57;;;6.63;;
71046;SDS011;58703;48.978;8.982;2023-08-24T04:25:27;12.18;;;7.03;;
71046;SDS011;58703;48.978;8.982;2023-08-24T04:27:52;11.03;;;7.03;;
71046;SDS011;58703;48.978;8.982;2023-08-24T04:30:18;11.43;;;7.13;;
71046;SDS011;58703;48.978;8.982;2023-08-24T04:32:44;13.23;;;7.60;;
71046;SDS011;58703;48.978;8.982;2023-08-24T04:35:09;11.40;;;8.27;;
71046;SDS011;58703;48.978;8.982;2023-08-24T04:37:35;9.63;;;7.78;;
71046;SDS011;58703;48.978;8.982;2023-08-24T04:40:01;11.53;;;7.83;;
71046;SDS011;58703;48.978;8.982;2023-08-24T04:42:27;8.70;;;7.70;;
71046;SDS011;58703;48.978;8.982;2023-08-24T04:44:52;11.60;;;7.97;;
71046;SDS011;58703;48.978;8.982;2023-08-24T04:47:18;7.97;;;7.17;;
71046;SDS011;58703;48.978;8.982;2023-08-24T04:49:43;7.97;;;7.00;;
71046;SDS011;58703;48.978;8.982;2023-08-24T04:52:09;9.30;;;8.07;;
71046;SDS011;58703;48.978;8.982;2023-08-24T04:54:34;11.40;;;7.23;;
71046;SDS011;58703;48.978;8.982;2023-08-24T04:57:00;9.80;;;7.22;;
71046;SDS011;58703;48.978;8.982;2023-08-24T04:59:25;9.30;;;8.40;;
71046;SDS011;58703;48.978;8.982;2023-08-24T05:01:51;17.07;;;8.83;;
71046;SDS011;58703;48.978;8.982;2023-08-24T05:04:16;14.73;;;8.93;;
71046;SDS011;58703;48.978;8.982;2023-08-24T05:06:42;11.87;;;8.43;;
71046;SDS011;58703;48.978;8.982;2023-08-24T05:09:07;12.00;;;8.73;;
71046;SDS011;58703;48.978;8.982;2023-08-24T05:11:33;10.98;;;8.60;;
71046;SDS011;58703;48.978;8.982;2023-08-24T05:13:59;10.67;;;9.00;;
71046;SDS011;58703;48.978;8.982;2023-08-24T05:16:24;11.07;;;8.40;;
71046;SDS011;58703;48.978;8.982;2023-08-24T05:18:51;10.67;;;8.43;;
71046;SDS011;58703;48.978;8.982;2023-08-24T05:21:17;9.85;;;8.90;;
71046;SDS011;58703;48.978;8.982;2023-08-24T05:23:42;12.03;;;8.47;;
71046;SDS011;58703;48.978;8.982;2023-08-24T05:26:08;10.05;;;7.68;;
71046;SDS011;58703;48.978;8.982;2023-08-24T05:28:33;8.13;;;7.20;;
71046;SDS011;58703;48.978;8.982;2023-08-24T05:30:59;10.73;;;7.60;;
71046;SDS011;58703;48.978;8.982;2023-08-24T05:33:25;9.18;;;7.15;;
71046;SDS011;58703;48.978;8.982;2023-08-24T05:35:51;10.50;;;6.37;;
71046;SDS011;58703;48.978;8.982;2023-08-24T05:38:17;9.20;;;6.97;;
71046;SDS011;58703;48.978;8.982;2023-08-24T05:40:43;7.93;;;6.50;;
71046;SDS011;58703;48.978;8.982;2023-08-24T05:43:11;11.18;;;7.30;;
71046;SDS011;58703;48.978;8.982;2023-08-24T05:45:37;7.85;;;7.05;;
71046;SDS011;58703;48.978;8.982;2023-08-24T05:48:05;9.53;;;6.30;;
71046;SDS011;58703;48.978;8.982;2023-08-24T05:50:30;8.40;;;6.47;;
71046;SDS011;58703;48.978;8.982;2023-08-24T05:52:56;10.52;;;6.80;;
71046;SDS011;58703;48.978;8.982;2023-08-24T05:55:22;9.03;;;5.97;;
71046;SDS011;58703;48.978;8.982;2023-08-24T05:57:47;7.97;;;5.60;;
71046;SDS011;58703;48.978;8.982;2023-08-24T06:00:13;7.85;;;5.35;;
71046;SDS011;58703;48.978;8.982;2023-08-24T06:02:39;7.63;;;5.00;;
71046;SDS011;58703;48.978;8.982;2023-08-24T06:05:06;6.03;;;4.50;;
71046;SDS011;58703;48.978;8.982;2023-08-24T06:07:32;5.32;;;4.70;;
71046;SDS011;58703;48.978;8.982;2023-08-24T06:09:58;5.28;;;4.60;;
71046;SDS011;58703;48.978;8.982;2023-08-24T06:12:24;7.27;;;4.33;;
71046;SDS011;58703;48.978;8.982;2023-08-24T06:14:50;5.20;;;4.18;;
71046;SDS011;58703;48.978;8.982;2023-08-24T06:17:16;6.50;;;4.18;;
71046;SDS011;58703;48.978;8.982;2023-08-24T06:19:41;5.33;;;3.87;;
71046;SDS011;58703;48.978;8.982;2023-08-24T06:22:07;6.35;;;4.60;;
71046;SDS011;58703;48.978;8.982;2023-08-24T06:24:33;8.23;;;4.43;;
71046;SDS011;58703;48.978;8.982;2023-08-24T06:26:58;6.33;;;4.90;;
71046;SDS011;58703;48.978;8.982;2023-08-24T06:29:24;6.47;;;4.40;;
71046;SDS011;58703;48.978;8.982;2023-08-24T06:31:49;4.70;;;4.30;;
71046;SDS011;58703;48.978;8.982;2023-08-24T06:34:15;7.50;;;4.40;;
71046;SDS011;58703;48.978;8.982;2023-08-24T06:36:41;7.57;;;4.67;;
71046;SDS011;58703;48.978;8.982;2023-08-24T06:39:06;7.73;;;5.40;;
71046;SDS011;58703;48.978;8.982;2023-08-24T06:41:33;8.98;;;5.78;;
71046;SDS011;58703;48.978;8.982;2023-08-24T06:44:00;7.00;;;5.30;;
71046;SDS011;58703;48.978;8.982;2023-08-24T06:46:26;8.15;;;5.05;;
71046;SDS011;58703;48.978;8.982;2023-08-24T06:48:52;8.53;;;5.13;;
71046;SDS011;58703;48.978;8.982;2023-08-24T06:51:20;7.13;;;5.15;;
71046;SDS011;58703;48.978;8.982;2023-08-24T06:53:46;5.53;;;5.00;;
71046;SDS011;58703;48.978;8.982;2023-08-24T06:56:14;5.13;;;4.63;;
71046;SDS011;58703;48.978;8.982;2023-08-24T06:58:40;6.33;;;4.90;;
71046;SDS011;58703;48.978;8.982;2023-08-24T07:01:06;7.65;;;4.72;;
71046;SDS011;58703;48.978;8.982;2023-08-24T07:03:32;7.60;;;4.47;;
71046;SDS011;58703;48.978;8.982;2023-08-24T07:06:01;9.25;;;4.63;;
71046;SDS011;58703;48.978;8.982;2023-08-24T07:08:26;5.50;;;4.03;;
71046;SDS011;58703;48.978;8.982;2023-08-24T07:10:52;5.07;;;4.53;;
71046;SDS011;58703;48.978;8.982;2023-08-24T07:13:18;5.60;;;4.50;;
71046;SDS011;58703;48.978;8.982;2023-08-24T07:15:43;6.10;;;4.00;;
71046;SDS011;58703;48.978;8.982;2023-08-24T07:18:10;6.80;;;3.70;;
71046;SDS011;58703;48.978;8.982;2023-08-24T07:20:36;8.48;;;3.40;;
71046;SDS011;58703;48.978;8.982;2023-08-24T07:23:02;7.70;;;3.55;;
71046;SDS011;58703;48.978;8.982;2023-08-24T07:25:28;7.80;;;3.70;;
71046;SDS011;58703;48.978;8.982;2023-08-24T07:27:54;9.40;;;4.00;;
71046;SDS011;58703;48.978;8.982;2023-08-24T07:30:25;6.68;;;3.72;;
71046;SDS011;58703;48.978;8.982;2023-08-24T07:32:52;8.63;;;3.80;;
71046;SDS011;58703;48.978;8.982;2023-08-24T07:35:21;5.93;;;3.42;;
71046;SDS011;58703;48.978;8.982;2023-08-24T07:37:50;8.57;;;3.90;;
71046;SDS011;58703;48.978;8.982;2023-08-24T07:40:16;5.45;;;3.38;;
71046;SDS011;58703;48.978;8.982;2023-08-24T07:42:45;7.37;;;3.53;;
71046;SDS011;58703;48.978;8.982;2023-08-24T07:45:12;5.15;;;3.42;;
71046;SDS011;58703;48.978;8.982;2023-08-24T07:47:39;4.85;;;3.13;;
71046;SDS011;58703;48.978;8.982;2023-08-24T07:50:06;5.20;;;3.70;;
71046;SDS011;58703;48.978;8.982;2023-08-24T07:52:33;5.47;;;3.17;;
71046;SDS011;58703;48.978;8.982;2023-08-24T07:54:58;10.05;;;3.63;;
71046;SDS011;58703;48.978;8.982;2023-08-24T07:57:26;5.20;;;3.58;;
71046;SDS011;58703;48.978;8.982;2023-08-24T07:59:52;7.38;;;3.75;;
71046;SDS011;58703;48.978;8.982;2023-08-24T08:02:18;6.20;;;3.20;;
71046;SDS011;58703;48.978;8.982;2023-08-24T08:04:44;7.30;;;3.33;;
71046;SDS011;58703;48.978;8.982;2023-08-24T08:07:09;6.37;;;3.73;;
71046;SDS011;58703;48.978;8.982;2023-08-24T08:09:37;7.25;;;3.63;;
71046;SDS011;58703;48.978;8.982;2023-08-24T08:12:02;5.97;;;3.70;;
71046;SDS011;58703;48.978;8.982;2023-08-24T08:14:29;7.32;;;3.38;;
71046;SDS011;58703;48.978;8.982;2023-08-24T08:16:55;5.50;;;2.93;;
71046;SDS011;58703;48.978;8.982;2023-08-24T08:19:21;6.22;;;3.33;;
71046;SDS011;58703;48.978;8.982;2023-08-24T08:21:47;8.30;;;3.53;;
71046;SDS011;58703;48.978;8.982;2023-08-24T08:24:13;3.70;;;3.27;;
71046;SDS011;58703;48.978;8.982;2023-08-24T08:26:38;5.15;;;3.40;;
71046;SDS011;58703;48.978;8.982;2023-08-24T08:29:04;5.30;;;2.63;;
71046;SDS011;58703;48.978;8.982;2023-08-24T08:31:30;5.25;;;2.80;;
71046;SDS011;58703;48.978;8.982;2023-08-24T08:33:56;4.33;;;2.87;;
71046;SDS011;58703;48.978;8.982;2023-08-24T08:36:22;3.40;;;3.10;;
71046;SDS011;58703;48.978;8.982;2023-08-24T08:38:47;6.70;;;3.50;;
71046;SDS011;58703;48.978;8.982;2023-08-24T08:41:14;6.07;;;3.47;;
71046;SDS011;58703;48.978;8.982;2023-08-24T08:43:42;5.25;;;3.15;;
71046;SDS011;58703;48.978;8.982;2023-08-24T08:46:07;5.93;;;3.33;;
71046;SDS011;58703;48.978;8.982;2023-08-24T08:48:33;4.70;;;2.95;;
71046;SDS011;58703;48.978;8.982;2023-08-24T08:51:01;3.97;;;2.60;;
71046;SDS011;58703;48.978;8.982;2023-08-24T08:53:28;3.88;;;3.03;;
71046;SDS011;58703;48.978;8.982;2023-08-24T08:55:54;3.93;;;2.90;;
71046;SDS011;58703;48.978;8.982;2023-08-24T08:58:23;4.60;;;2.90;;
71046;SDS011;58703;48.978;8.982;2023-08-24T09:00:48;3.03;;;2.63;;
71046;SDS011;58703;48.978;8.982;2023-08-24T09:03:18;3.33;;;2.70;;
71046;SDS011;58703;48.978;8.982;2023-08-24T09:05:44;3.20;;;2.28;;
71046;SDS011;58703;48.978;8.982;2023-08-24T09:08:13;5.05;;;3.03;;
71046;SDS011;58703;48.978;8.982;2023-08-24T09:10:41;5.82;;;2.55;;
71046;SDS011;58703;48.978;8.982;2023-08-24T09:13:07;2.83;;;2.63;;
71046;SDS011;58703;48.978;8.982;2023-08-24T09:15:34;7.13;;;3.00;;
71046;SDS011;58703;48.978;8.982;2023-08-24T09:18:01;7.75;;;2.95;;
71046;SDS011;58703;48.978;8.982;2023-08-24T09:20:27;3.27;;;2.50;;
71046;SDS011;58703;48.978;8.982;2023-08-24T09:22:54;3.90;;;2.60;;
71046;SDS011;58703;48.978;8.982;2023-08-24T09:25:22;4.45;;;2.75;;
71046;SDS011;58703;48.978;8.982;2023-08-24T09:28:01;4.68;;;2.85;;
71046;SDS011;58703;48.978;8.982;2023-08-24T09:30:36;5.07;;;2.60;;
71046;SDS011;58703;48.978;8.982;2023-08-24T09:33:09;7.68;;;2.78;;
71046;SDS011;58703;48.978;8.982;2023-08-24T09:35:36;6.53;;;2.85;;
71046;SDS011;58703;48.978;8.982;2023-08-24T09:38:35;5.63;;;2.80;;
71046;SDS011;58703;48.978;8.982;2023-08-24T09:40:54;5.22;;;2.67;;
71046;SDS011;58703;48.978;8.982;2023-08-24T09:43:21;5.40;;;2.73;;
71046;SDS011;58703;48.978;8.982;2023-08-24T09:45:54;4.53;;;3.05;;
71046;SDS011;58703;48.978;8.982;2023-08-24T09:48:21;6.13;;;2.90;;
71046;SDS011;58703;48.978;8.982;2023-08-24T09:50:49;5.68;;;3.28;;
71046;SDS011;58703;48.978;8.982;2023-08-24T09:53:22;6.88;;;3.35;;
71046;SDS011;58703;48.978;8.982;2023-08-24T09:56:01;4.60;;;2.70;;
71046;SDS011;58703;48.978;8.982;2023-08-24T09:58:28;8.55;;;2.88;;
71046;SDS011;58703;48.978;8.982;2023-08-24T10:00:54;7.88;;;3.25;;
71046;SDS011;58703;48.978;8.982;2023-08-24T10:03:21;8.40;;;3.28;;
71046;SDS011;58703;48.978;8.982;2023-08-24T10:05:50;5.10;;;3.00;;
71046;SDS011;58703;48.978;8.982;2023-08-24T10:08:21;5.63;;;3.30;;
71046;SDS011;58703;48.978;8.982;2023-08-24T10:10:53;6.10;;;3.08;;
71046;SDS011;58703;48.978;8.982;2023-08-24T10:13:39;4.75;;;3.30;;
71046;SDS011;58703;48.978;8.982;2023-08-24T10:16:15;8.25;;;3.55;;
71046;SDS011;58703;48.978;8.982;2023-08-24T10:18:41;8.13;;;3.58;;
71046;SDS011;58703;48.978;8.982;2023-08-24T10:21:07;5.90;;;3.30;;
71046;SDS011;58703;48.978;8.982;2023-08-24T10:23:36;7.10;;;3.42;;
71046;SDS011;58703;48.978;8.982;2023-08-24T10:26:03;7.18;;;3.45;;
71046;SDS011;58703;48.978;8.982;2023-08-24T10:28:32;4.68;;;3.40;;
71046;SDS011;58703;48.978;8.982;2023-08-24T10:30:58;11.87;;;3.00;;
71046;SDS011;58703;48.978;8.982;2023-08-24T10:33:26;4.80;;;2.80;;
71046;SDS011;58703;48.978;8.982;2023-08-24T10:35:52;6.45;;;2.90;;
71046;SDS011;58703;48.978;8.982;2023-08-24T10:38:25;7.33;;;3.03;;
71046;SDS011;58703;48.978;8.982;2023-08-24T10:40:52;5.68;;;3.42;;
71046;SDS011;58703;48.978;8.982;2023-08-24T10:43:19;9.48;;;3.55;;
71046;SDS011;58703;48.978;8.982;2023-08-24T10:45:55;6.50;;;3.13;;
71046;SDS011;58703;48.978;8.982;2023-08-24T10:48:28;7.20;;;3.33;;
71046;SDS011;58703;48.978;8.982;2023-08-24T10:53:58;6.00;;;3.53;;
71046;SDS011;58703;48.978;8.982;2023-08-24T10:56:38;4.95;;;3.55;;
71046;SDS011;58703;48.978;8.982;2023-08-24T10:59:11;7.20;;;3.20;;
71046;SDS011;58703;48.978;8.982;2023-08-24T11:01:39;6.15;;;3.10;;
71046;SDS011;58703;48.978;8.982;2023-08-24T11:04:06;6.67;;;4.03;;
71046;SDS011;58703;48.978;8.982;2023-08-24T11:06:34;6.75;;;3.45;;
71046;SDS011;58703;48.978;8.982;2023-08-24T11:09:15;5.55;;;3.60;;
71046;SDS011;58703;48.978;8.982;2023-08-24T11:11:42;5.72;;;3.75;;
71046;SDS011;58703;48.978;8.982;2023-08-24T11:14:20;5.32;;;3.40;;
71046;SDS011;58703;48.978;8.982;2023-08-24T11:16:48;9.37;;;3.67;;
71046;SDS011;58703;48.978;8.982;2023-08-24T11:19:14;7.50;;;3.70;;
71046;SDS011;58703;48.978;8.982;2023-08-24T11:21:41;4.18;;;3.58;;
71046;SDS011;58703;48.978;8.982;2023-08-24T11:24:09;5.03;;;3.30;;
71046;SDS011;58703;48.978;8.982;2023-08-24T11:26:43;4.72;;;3.80;;
71046;SDS011;58703;48.978;8.982;2023-08-24T11:29:13;4.37;;;3.03;;
71046;SDS011;58703;48.978;8.982;2023-08-24T11:31:39;7.93;;;3.83;;
71046;SDS011;58703;48.978;8.982;2023-08-24T11:34:05;7.97;;;3.72;;
71046;SDS011;58703;48.978;8.982;2023-08-24T11:36:42;8.13;;;3.65;;
71046;SDS011;58703;48.978;8.982;2023-08-24T11:39:14;6.82;;;3.70;;
71046;SDS011;58703;48.978;8.982;2023-08-24T11:41:41;6.20;;;3.73;;
71046;SDS011;58703;48.978;8.982;2023-08-24T11:44:07;3.92;;;3.53;;
71046;SDS011;58703;48.978;8.982;2023-08-24T11:46:33;5.20;;;3.97;;
71046;SDS011;58703;48.978;8.982;2023-08-24T11:48:58;9.95;;;3.55;;
71046;SDS011;58703;48.978;8.982;2023-08-24T11:51:24;6.53;;;3.97;;
71046;SDS011;58703;48.978;8.982;2023-08-24T11:53:50;9.07;;;3.63;;
71046;SDS011;58703;48.978;8.982;2023-08-24T11:56:16;7.60;;;3.55;;
71046;SDS011;58703;48.978;8.982;2023-08-24T11:58:43;5.50;;;3.72;;
71046;SDS011;58703;48.978;8.982;2023-08-24T12:01:13;4.07;;;3.42;;
71046;SDS011;58703;48.978;8.982;2023-08-24T12:03:39;5.35;;;3.97;;
71046;SDS011;58703;48.978;8.982;2023-08-24T12:06:12;5.72;;;4.00;;
71046;SDS011;58703;48.978;8.982;2023-08-24T12:08:40;7.13;;;4.00;;
71046;SDS011;58703;48.978;8.982;2023-08-24T12:11:16;7.95;;;3.85;;
71046;SDS011;58703;48.978;8.982;2023-08-24T12:13:44;7.70;;;4.15;;
71046;SDS011;58703;48.978;8.982;2023-08-24T12:16:20;6.30;;;4.00;;
71046;SDS011;58703;48.978;8.982;2023-08-24T12:18:54;8.35;;;4.18;;
71046;SDS011;58703;48.978;8.982;2023-08-24T12:21:21;6.78;;;4.43;;
71046;SDS011;58703;48.978;8.982;2023-08-24T12:23:54;4.68;;;3.83;;
71046;SDS011;58703;48.978;8.982;2023-08-24T12:26:26;6.00;;;3.83;;
71046;SDS011;58703;48.978;8.982;2023-08-24T12:28:52;6.28;;;4.40;;
71046;SDS011;58703;48.978;8.982;2023-08-24T12:31:19;4.63;;;3.75;;
71046;SDS011;58703;48.978;8.982;2023-08-24T12:33:45;5.45;;;4.13;;
71046;SDS011;58703;48.978;8.982;2023-08-24T12:36:11;5.72;;;3.72;;
71046;SDS011;58703;48.978;8.982;2023-08-24T12:38:37;5.03;;;4.32;;
71046;SDS011;58703;48.978;8.982;2023-08-24T12:41:03;7.43;;;4.15;;
71046;SDS011;58703;48.978;8.982;2023-08-24T12:43:29;5.47;;;4.13;;
71046;SDS011;58703;48.978;8.982;2023-08-24T12:45:54;5.00;;;4.00;;
71046;SDS011;58703;48.978;8.982;2023-08-24T12:48:20;6.60;;;3.73;;
71046;SDS011;58703;48.978;8.982;2023-08-24T12:50:46;5.18;;;4.18;;
71046;SDS011;58703;48.978;8.982;2023-08-24T12:53:11;6.93;;;4.43;;
71046;SDS011;58703;48.978;8.982;2023-08-24T12:55:38;4.43;;;4.00;;
71046;SDS011;58703;48.978;8.982;2023-08-24T12:58:04;6.43;;;4.10;;
71046;SDS011;58703;48.978;8.982;2023-08-24T13:00:30;4.90;;;3.88;;
71046;SDS011;58703;48.978;8.982;2023-08-24T13:02:56;6.03;;;4.32;;
71046;SDS011;58703;48.978;8.982;2023-08-24T13:05:22;8.27;;;4.30;;
71046;SDS011;58703;48.978;8.982;2023-08-24T13:07:48;5.75;;;4.30;;
71046;SDS011;58703;48.978;8.982;2023-08-24T13:10:14;7.63;;;4.18;;
71046;SDS011;58703;48.978;8.982;2023-08-24T13:12:39;7.63;;;4.40;;
71046;SDS011;58703;48.978;8.982;2023-08-24T13:15:05;5.15;;;4.15;;
71046;SDS011;58703;48.978;8.982;2023-08-24T13:17:31;5.73;;;4.00;;
71046;SDS011;58703;48.978;8.982;2023-08-24T13:19:58;5.80;;;4.32;;
71046;SDS011;58703;48.978;8.982;2023-08-24T13:22:24;6.75;;;4.20;;
71046;SDS011;58703;48.978;8.982;2023-08-24T13:24:50;7.00;;;4.17;;
71046;SDS011;58703;48.978;8.982;2023-08-24T13:27:15;7.00;;;4.28;;
71046;SDS011;58703;48.978;8.982;2023-08-24T13:29:41;7.07;;;4.53;;
71046;SDS011;58703;48.978;8.982;2023-08-24T13:32:07;5.63;;;4.18;;
71046;SDS011;58703;48.978;8.982;2023-08-24T13:34:32;5.40;;;4.40;;
71046;SDS011;58703;48.978;8.982;2023-08-24T13:36:58;7.05;;;4.80;;
71046;SDS011;58703;48.978;8.982;2023-08-24T13:39:25;7.95;;;4.32;;
71046;SDS011;58703;48.978;8.982;2023-08-24T13:41:53;11.57;;;4.77;;
71046;SDS011;58703;48.978;8.982;2023-08-24T13:44:19;9.52;;;4.55;;
71046;SDS011;58703;48.978;8.982;2023-08-24T13:46:45;5.88;;;4.68;;
71046;SDS011;58703;48.978;8.982;2023-08-24T13:49:11;5.80;;;4.80;;
71046;SDS011;58703;48.978;8.982;2023-08-24T13:51:37;7.90;;;4.43;;
71046;SDS011;58703;48.978;8.982;2023-08-24T13:54:03;8.38;;;4.82;;
71046;SDS011;58703;48.978;8.982;2023-08-24T13:56:37;7.23;;;4.93;;
71046;SDS011;58703;48.978;8.982;2023-08-24T13:59:03;4.90;;;4.32;;
71046;SDS011;58703;48.978;8.982;2023-08-24T14:01:28;9.43;;;4.80;;
71046;SDS011;58703;48.978;8.982;2023-08-24T14:03:54;8.80;;;4.73;;
71046;SDS011;58703;48.978;8.982;2023-08-24T14:06:20;6.55;;;4.40;;
71046;SDS011;58703;48.978;8.982;2023-08-24T14:08:46;12.47;;;4.87;;
71046;SDS011;58703;48.978;8.982;2023-08-24T14:11:11;8.75;;;4.65;;
71046;SDS011;58703;48.978;8.982;2023-08-24T14:13:37;10.87;;;4.43;;
71046;SDS011;58703;48.978;8.982;2023-08-24T14:16:02;6.80;;;4.50;;
71046;SDS011;58703;48.978;8.982;2023-08-24T14:18:29;5.45;;;4.55;;
71046;SDS011;58703;48.978;8.982;2023-08-24T14:20:55;7.63;;;4.53;;
71046;SDS011;58703;48.978;8.982;2023-08-24T14:23:21;7.27;;;4.37;;
71046;SDS011;58703;48.978;8.982;2023-08-24T14:25:46;7.47;;;4.43;;
71046;SDS011;58703;48.978;8.982;2023-08-24T14:28:13;9.88;;;4.40;;
71046;SDS011;58703;48.978;8.982;2023-08-24T14:30:38;9.80;;;4.90;;
71046;SDS011;58703;48.978;8.982;2023-08-24T14:33:05;7.18;;;4.70;;
71046;SDS011;58703;48.978;8.982;2023-08-24T14:35:31;6.83;;;4.83;;
71046;SDS011;58703;48.978;8.982;2023-08-24T14:37:57;9.23;;;4.38;;
71046;SDS011;58703;48.978;8.982;2023-08-24T14:40:23;6.87;;;4.60;;
71046;SDS011;58703;48.978;8.982;2023-08-24T14:42:48;8.13;;;4.63;;
71046;SDS011;58703;48.978;8.982;2023-08-24T14:45:14;5.35;;;4.63;;
71046;SDS011;58703;48.978;8.982;2023-08-24T14:47:41;10.40;;;4.38;;
71046;SDS011;58703;48.978;8.982;2023-08-24T14:50:07;6.53;;;5.00;;